createdAt,value
2018-08-04T00:00:08.659Z,27.44
2018-08-04T00:02:36.483Z,27.44
2018-08-04T00:05:04.566Z,27.40
2018-08-04T00:07:33.689Z,27.36
2018-08-04T00:10:02.048Z,27.35
2018-08-04T00:12:30.507Z,27.29
2018-08-04T00:14:58.538Z,27.25
2018-08-04T00:17:26.404Z,27.22
2018-08-04T00:19:54.395Z,27.18
2018-08-04T00:22:22.234Z,27.14
2018-08-04T00:24:50.251Z,27.08
2018-08-04T00:27:18.080Z,27.09
2018-08-04T00:29:45.902Z,27.09
2018-08-04T00:32:13.882Z,27.09
2018-08-04T00:34:41.726Z,27.06
2018-08-04T00:37:09.494Z,27.03
2018-08-04T00:39:37.180Z,27.04
2018-08-04T00:42:05.085Z,27.03
2018-08-04T00:44:33.109Z,26.98
2018-08-04T00:47:00.934Z,26.97
2018-08-04T00:49:28.703Z,26.95
2018-08-04T00:51:56.610Z,26.88
2018-08-04T00:54:24.448Z,26.83
2018-08-04T00:56:52.187Z,26.79
2018-08-04T00:59:20.256Z,26.73
2018-08-04T01:01:47.963Z,26.69
2018-08-04T01:04:15.679Z,26.64
2018-08-04T01:06:43.391Z,26.66
2018-08-04T01:09:11.197Z,26.61
2018-08-04T01:11:38.949Z,26.52
2018-08-04T01:14:06.941Z,26.47
2018-08-04T01:16:34.632Z,26.44
2018-08-04T01:19:02.523Z,26.42
2018-08-04T01:21:30.478Z,26.37
2018-08-04T01:23:58.282Z,26.36
2018-08-04T01:26:26.139Z,26.33
2018-08-04T01:28:54.209Z,26.31
2018-08-04T01:31:22.259Z,26.31
2018-08-04T01:33:50.256Z,26.26
2018-08-04T01:36:18.111Z,26.22
2018-08-04T01:38:46.074Z,26.15
2018-08-04T01:41:13.994Z,26.11
2018-08-04T01:43:42.021Z,26.10
2018-08-04T01:46:09.789Z,26.09
2018-08-04T01:48:37.411Z,26.02
2018-08-04T01:51:05.220Z,25.98
2018-08-04T01:53:33.205Z,25.96
2018-08-04T01:56:01.203Z,25.97
2018-08-04T01:58:28.824Z,25.92
2018-08-04T02:00:56.402Z,25.92
2018-08-04T02:03:23.951Z,25.85
2018-08-04T02:05:51.534Z,25.83
2018-08-04T02:08:19.089Z,25.85
2018-08-04T02:10:46.727Z,25.78
2018-08-04T02:13:14.321Z,25.74
2018-08-04T02:15:41.907Z,25.72
2018-08-04T02:18:09.471Z,25.71
2018-08-04T02:20:37.102Z,25.68
2018-08-04T02:23:04.667Z,25.65
2018-08-04T02:25:32.242Z,25.65
2018-08-04T02:27:59.917Z,25.59
2018-08-04T02:30:27.490Z,25.56
2018-08-04T02:32:55.094Z,25.51
2018-08-04T02:35:22.695Z,25.47
2018-08-04T02:37:50.499Z,25.46
2018-08-04T02:40:18.148Z,25.45
2018-08-04T02:42:45.723Z,25.46
2018-08-04T02:45:13.375Z,25.45
2018-08-04T02:47:41.033Z,25.41
2018-08-04T02:50:08.928Z,25.41
2018-08-04T02:52:36.476Z,25.37
2018-08-04T02:55:04.141Z,25.32
2018-08-04T02:57:31.744Z,25.31
2018-08-04T02:59:59.327Z,25.27
2018-08-04T03:02:26.891Z,25.26
2018-08-04T03:04:54.459Z,25.24
2018-08-04T03:07:22.135Z,25.21
2018-08-04T03:09:49.867Z,25.19
2018-08-04T03:12:17.439Z,25.16
2018-08-04T03:14:44.971Z,25.15
2018-08-04T03:17:12.511Z,25.17
2018-08-04T03:19:40.131Z,25.16
2018-08-04T03:22:07.713Z,25.12
2018-08-04T03:24:35.343Z,25.09
2018-08-04T03:27:02.989Z,25.09
2018-08-04T03:29:30.563Z,25.08
2018-08-04T03:31:58.102Z,25.06
2018-08-04T03:34:25.794Z,25.01
2018-08-04T03:36:53.438Z,24.98
2018-08-04T03:39:20.971Z,24.96
2018-08-04T03:41:48.543Z,24.96
2018-08-04T03:44:16.122Z,24.96
2018-08-04T03:46:43.642Z,24.95
2018-08-04T03:49:11.223Z,24.93
2018-08-04T03:51:38.771Z,24.95
2018-08-04T03:54:06.331Z,24.97
2018-08-04T03:56:33.960Z,25.03
2018-08-04T03:59:01.527Z,25.03
2018-08-04T04:01:29.066Z,25.00
2018-08-04T04:03:56.783Z,24.99
2018-08-04T04:06:24.361Z,24.99
2018-08-04T04:08:51.910Z,24.98
2018-08-04T04:11:19.511Z,25.01
2018-08-04T04:13:47.042Z,25.01
2018-08-04T04:16:14.603Z,25.01
2018-08-04T04:18:42.258Z,25.06
2018-08-04T04:21:09.859Z,25.07
2018-08-04T04:23:37.434Z,25.06
2018-08-04T04:26:05.051Z,25.09
2018-08-04T04:28:32.679Z,25.12
2018-08-04T04:31:00.234Z,25.08
2018-08-04T04:33:27.815Z,25.08
2018-08-04T04:35:55.379Z,25.11
2018-08-04T04:38:22.939Z,25.14
2018-08-04T04:40:50.514Z,25.15
2018-08-04T04:43:18.083Z,25.17
2018-08-04T04:45:45.711Z,25.23
2018-08-04T04:48:13.331Z,25.26
2018-08-04T04:50:40.904Z,25.32
2018-08-04T04:53:08.479Z,25.38
2018-08-04T04:55:36.148Z,25.46
2018-08-04T04:58:03.811Z,25.52
2018-08-04T05:00:31.366Z,25.58
2018-08-04T05:02:58.997Z,25.64
2018-08-04T05:05:26.575Z,25.73
2018-08-04T05:07:54.222Z,25.85
2018-08-04T05:10:21.844Z,25.94
2018-08-04T05:12:49.426Z,26.02
2018-08-04T05:15:16.991Z,26.12
2018-08-04T05:17:44.579Z,26.24
2018-08-04T05:20:12.169Z,26.26
2018-08-04T05:22:39.735Z,26.31
2018-08-04T05:25:07.519Z,26.38
2018-08-04T05:27:35.083Z,26.48
2018-08-04T05:30:02.772Z,26.61
2018-08-04T05:32:30.390Z,26.71
2018-08-04T05:34:57.943Z,26.82
2018-08-04T05:37:25.509Z,26.93
2018-08-04T05:39:53.131Z,27.03
2018-08-04T05:42:20.799Z,27.16
2018-08-04T05:44:48.335Z,27.34
2018-08-04T05:47:16.144Z,27.41
2018-08-04T05:49:43.779Z,27.44
2018-08-04T05:52:11.383Z,27.47
2018-08-04T05:54:39.011Z,27.53
2018-08-04T05:57:06.801Z,27.63
2018-08-04T05:59:34.367Z,27.80
2018-08-04T06:02:02.043Z,27.88
2018-08-04T06:04:29.607Z,27.91
2018-08-04T06:06:57.162Z,28.10
2018-08-04T06:09:24.742Z,28.21
2018-08-04T06:11:52.654Z,28.32
2018-08-04T06:14:20.254Z,28.46
2018-08-04T06:16:48.066Z,28.41
2018-08-04T06:19:15.660Z,28.41
2018-08-04T06:21:43.211Z,28.44
2018-08-04T06:24:10.833Z,28.72
2018-08-04T06:26:38.446Z,29.09
2018-08-04T06:29:06.063Z,29.38
2018-08-04T06:31:33.657Z,29.64
2018-08-04T06:34:01.292Z,29.96
2018-08-04T06:36:28.851Z,30.15
2018-08-04T06:38:56.459Z,30.06
2018-08-04T06:41:24.106Z,29.92
2018-08-04T06:43:52.060Z,29.98
2018-08-04T06:46:19.744Z,30.13
2018-08-04T06:48:47.274Z,30.02
2018-08-04T06:51:14.839Z,29.84
2018-08-04T06:53:42.543Z,29.87
2018-08-04T06:56:10.160Z,29.98
2018-08-04T06:58:37.723Z,30.20
2018-08-04T07:01:05.451Z,30.57
2018-08-04T07:03:33.094Z,30.77
2018-08-04T07:06:00.643Z,31.04
2018-08-04T07:08:28.222Z,31.31
2018-08-04T07:10:56.334Z,31.58
2018-08-04T07:13:23.914Z,31.44
2018-08-04T07:15:51.619Z,31.47
2018-08-04T07:18:19.190Z,31.79
2018-08-04T07:20:46.756Z,31.92
2018-08-04T07:23:14.395Z,32.03
2018-08-04T07:25:42.091Z,32.31
2018-08-04T07:28:09.650Z,32.60
2018-08-04T07:30:37.266Z,32.73
2018-08-04T07:33:05.019Z,32.93
2018-08-04T07:35:32.590Z,33.17
2018-08-04T07:38:00.195Z,33.21
2018-08-04T07:40:27.825Z,33.21
2018-08-04T07:42:55.360Z,33.15
2018-08-04T07:45:22.963Z,32.90
2018-08-04T07:47:50.524Z,32.66
2018-08-04T07:50:18.139Z,32.60
2018-08-04T07:52:45.751Z,32.37
2018-08-04T07:55:13.344Z,32.22
2018-08-04T07:57:40.962Z,32.23
2018-08-04T08:00:09.034Z,32.42
2018-08-04T08:02:36.607Z,32.64
2018-08-04T08:05:04.364Z,32.69
2018-08-04T08:07:31.927Z,32.66
2018-08-04T08:09:59.499Z,32.89
2018-08-04T08:12:27.074Z,33.45
2018-08-04T08:14:54.679Z,34.03
2018-08-04T08:17:22.271Z,34.25
2018-08-04T08:19:49.910Z,34.44
2018-08-04T08:22:17.522Z,34.66
2018-08-04T08:24:45.097Z,34.86
2018-08-04T08:27:12.743Z,34.98
2018-08-04T08:29:40.403Z,35.28
2018-08-04T08:32:08.028Z,35.59
2018-08-04T08:34:35.823Z,35.92
2018-08-04T08:37:03.439Z,36.13
2018-08-04T08:39:31.003Z,36.82
2018-08-04T08:41:58.607Z,36.67
2018-08-04T08:44:26.287Z,36.62
2018-08-04T08:46:53.869Z,37.33
2018-08-04T08:49:21.412Z,37.47
2018-08-04T08:51:48.999Z,36.98
2018-08-04T08:54:16.564Z,36.53
2018-08-04T08:56:44.119Z,36.36
2018-08-04T08:59:11.724Z,36.68
2018-08-04T09:01:39.288Z,36.43
2018-08-04T09:04:07.306Z,35.84
2018-08-04T09:06:34.943Z,35.52
2018-08-04T09:09:02.676Z,35.14
2018-08-04T09:11:30.255Z,34.73
2018-08-04T09:13:57.866Z,34.26
2018-08-04T09:16:25.422Z,34.32
2018-08-04T09:18:52.975Z,35.00
2018-08-04T09:21:20.591Z,35.25
2018-08-04T09:23:48.138Z,34.77
2018-08-04T09:26:15.844Z,34.25
2018-08-04T09:28:43.442Z,33.83
2018-08-04T09:31:11.172Z,33.89
2018-08-04T09:33:38.754Z,34.20
2018-08-04T09:36:06.387Z,33.81
2018-08-04T09:38:34.016Z,33.96
2018-08-04T09:41:01.839Z,34.48
2018-08-04T09:43:29.483Z,34.53
2018-08-04T09:45:57.045Z,34.70
2018-08-04T09:48:24.704Z,34.33
2018-08-04T09:50:52.418Z,33.80
2018-08-04T09:53:20.043Z,33.58
2018-08-04T09:55:47.611Z,33.85
2018-08-04T09:58:15.231Z,34.69
2018-08-04T10:00:48.311Z,35.24
2018-08-04T10:03:15.890Z,35.83
2018-08-04T10:05:43.484Z,36.35
2018-08-04T10:08:11.129Z,36.59
2018-08-04T10:10:38.767Z,37.22
2018-08-04T10:13:06.339Z,37.36
2018-08-04T10:15:33.887Z,37.53
2018-08-04T10:18:01.499Z,37.74
2018-08-04T10:20:29.065Z,37.65
2018-08-04T10:22:56.663Z,38.45
2018-08-04T10:25:24.369Z,38.77
2018-08-04T10:27:52.024Z,38.74
2018-08-04T10:30:19.827Z,38.30
2018-08-04T10:32:47.645Z,38.76
2018-08-04T10:35:15.291Z,39.44
2018-08-04T10:37:42.887Z,39.91
2018-08-04T10:40:10.671Z,39.71
2018-08-04T10:42:38.483Z,39.48
2018-08-04T10:45:06.470Z,40.02
2018-08-04T10:47:34.079Z,40.52
2018-08-04T10:50:01.632Z,40.53
2018-08-04T10:52:29.188Z,40.50
2018-08-04T10:54:56.790Z,41.01
2018-08-04T10:57:24.371Z,41.49
2018-08-04T10:59:51.910Z,41.61
2018-08-04T11:02:19.523Z,41.20
2018-08-04T11:04:47.082Z,41.05
2018-08-04T11:07:14.758Z,41.53
2018-08-04T11:09:42.391Z,41.96
2018-08-04T11:12:09.983Z,42.72
2018-08-04T11:14:37.531Z,43.09
2018-08-04T11:17:05.151Z,42.45
2018-08-04T11:19:32.771Z,42.63
2018-08-04T11:22:00.311Z,42.74
2018-08-04T11:24:27.920Z,42.98
2018-08-04T11:26:55.494Z,43.06
2018-08-04T11:29:23.087Z,42.76
2018-08-04T11:31:50.691Z,42.95
2018-08-04T11:34:18.565Z,43.66
2018-08-04T11:36:46.278Z,43.82
2018-08-04T11:39:13.985Z,43.92
2018-08-04T11:41:41.599Z,44.40
2018-08-04T11:44:09.352Z,43.47
2018-08-04T11:46:37.032Z,41.98
2018-08-04T11:49:04.947Z,40.82
2018-08-04T11:51:32.580Z,41.09
2018-08-04T11:54:00.183Z,40.79
2018-08-04T11:56:27.747Z,39.74
2018-08-04T11:58:55.284Z,38.87
2018-08-04T12:01:22.875Z,38.31
2018-08-04T12:03:50.438Z,37.42
2018-08-04T12:06:18.052Z,39.05
2018-08-04T12:08:45.667Z,40.17
2018-08-04T12:11:13.458Z,41.66
2018-08-04T12:13:41.051Z,42.89
2018-08-04T12:16:08.666Z,43.45
2018-08-04T12:18:36.235Z,43.63
2018-08-04T12:21:03.829Z,43.94
2018-08-04T12:23:31.431Z,44.80
2018-08-04T12:25:58.996Z,44.75
2018-08-04T12:28:26.571Z,45.20
2018-08-04T12:30:54.160Z,45.70
2018-08-04T12:33:21.759Z,45.75
2018-08-04T12:35:49.331Z,45.99
2018-08-04T12:38:16.919Z,45.87
2018-08-04T12:40:44.510Z,45.98
2018-08-04T12:43:12.199Z,46.08
2018-08-04T12:45:39.783Z,45.63
2018-08-04T12:48:07.334Z,42.94
2018-08-04T12:50:34.903Z,41.18
2018-08-04T12:53:02.478Z,40.25
2018-08-04T12:55:30.069Z,39.62
2018-08-04T12:57:57.748Z,39.03
2018-08-04T13:00:25.351Z,38.80
2018-08-04T13:02:52.898Z,38.74
2018-08-04T13:05:20.514Z,39.03
2018-08-04T13:07:48.098Z,38.69
2018-08-04T13:10:15.645Z,38.48
2018-08-04T13:12:43.429Z,38.32
2018-08-04T13:15:11.013Z,38.05
2018-08-04T13:17:38.638Z,38.08
2018-08-04T13:20:06.321Z,38.93
2018-08-04T13:22:33.932Z,38.62
2018-08-04T13:25:01.524Z,38.37
2018-08-04T13:27:29.063Z,38.02
2018-08-04T13:29:56.648Z,37.75
2018-08-04T13:32:24.203Z,37.66
2018-08-04T13:34:51.777Z,37.84
2018-08-04T13:37:19.449Z,37.99
2018-08-04T13:39:48.085Z,38.40
2018-08-04T13:42:15.646Z,38.96
2018-08-04T13:44:43.263Z,39.70
2018-08-04T13:47:10.815Z,40.32
2018-08-04T13:49:38.399Z,40.34
2018-08-04T13:52:06.112Z,39.41
2018-08-04T13:54:33.699Z,39.50
2018-08-04T13:57:01.272Z,40.38
2018-08-04T13:59:28.907Z,41.74
2018-08-04T14:01:56.551Z,42.51
2018-08-04T14:04:24.127Z,43.12
2018-08-04T14:06:51.701Z,43.65
2018-08-04T14:09:19.268Z,43.60
2018-08-04T14:11:46.831Z,42.47
2018-08-04T14:14:14.451Z,41.87
2018-08-04T14:16:42.136Z,41.16
2018-08-04T14:19:09.710Z,39.60
2018-08-04T14:21:37.283Z,38.35
2018-08-04T14:24:04.868Z,37.62
2018-08-04T14:26:32.415Z,37.31
2018-08-04T14:29:00.041Z,36.81
2018-08-04T14:31:27.614Z,36.47
2018-08-04T14:33:55.212Z,36.15
2018-08-04T14:36:22.823Z,35.71
2018-08-04T14:38:50.479Z,35.53
2018-08-04T14:41:18.152Z,35.25
2018-08-04T14:43:45.734Z,35.00
2018-08-04T14:46:13.287Z,34.91
2018-08-04T14:48:40.859Z,34.76
2018-08-04T14:51:08.486Z,34.51
2018-08-04T14:53:36.040Z,34.28
2018-08-04T14:56:03.642Z,34.06
2018-08-04T14:58:31.907Z,34.07
2018-08-04T15:00:59.579Z,34.03
2018-08-04T15:03:27.164Z,34.01
2018-08-04T15:05:54.804Z,33.93
2018-08-04T15:08:22.384Z,33.98
2018-08-04T15:10:49.935Z,33.86
2018-08-04T15:13:17.527Z,32.88
2018-08-04T15:15:45.207Z,32.38
2018-08-04T15:18:12.764Z,31.96
2018-08-04T15:20:40.375Z,31.57
2018-08-04T15:23:08.008Z,31.39
2018-08-04T15:25:35.587Z,31.54
2018-08-04T15:28:03.299Z,31.62
2018-08-04T15:30:30.931Z,31.65
2018-08-04T15:32:58.483Z,31.72
2018-08-04T15:35:26.094Z,31.60
2018-08-04T15:37:53.635Z,31.60
2018-08-04T15:40:21.367Z,31.60
2018-08-04T15:42:48.931Z,31.75
2018-08-04T15:45:16.477Z,31.95
2018-08-04T15:47:44.051Z,32.18
2018-08-04T15:50:11.851Z,32.26
2018-08-04T15:52:39.439Z,32.22
2018-08-04T15:55:07.287Z,32.22
2018-08-04T15:57:35.042Z,32.20
2018-08-04T16:00:02.795Z,32.31
2018-08-04T16:02:30.454Z,32.40
2018-08-04T16:04:58.019Z,32.43
2018-08-04T16:07:25.585Z,32.50
2018-08-04T16:09:53.164Z,32.43
2018-08-04T16:12:20.802Z,32.43
2018-08-04T16:14:48.394Z,32.46
2018-08-04T16:17:16.123Z,32.53
2018-08-04T16:19:43.741Z,32.31
2018-08-04T16:22:11.295Z,32.24
2018-08-04T16:24:38.847Z,32.32
2018-08-04T16:27:06.918Z,32.20
2018-08-04T16:29:34.509Z,32.26
2018-08-04T16:32:02.107Z,32.23
2018-08-04T16:34:29.745Z,32.28
2018-08-04T16:36:57.314Z,32.28
2018-08-04T16:39:24.850Z,32.26
2018-08-04T16:41:52.461Z,32.34
2018-08-04T16:44:20.032Z,32.33
2018-08-04T16:46:47.588Z,32.27
2018-08-04T16:49:15.274Z,32.18
2018-08-04T16:51:42.845Z,32.27
2018-08-04T16:54:10.418Z,32.30
2018-08-04T16:56:38.070Z,32.33
2018-08-04T16:59:05.651Z,32.34
2018-08-04T17:01:33.377Z,32.28
2018-08-04T17:04:01.007Z,32.35
2018-08-04T17:06:28.622Z,32.31
2018-08-04T17:08:56.167Z,32.28
2018-08-04T17:11:23.751Z,32.16
2018-08-04T17:13:51.296Z,31.95
2018-08-04T17:16:18.861Z,31.82
2018-08-04T17:18:46.531Z,31.63
2018-08-04T17:21:14.119Z,31.57
2018-08-04T17:23:41.768Z,31.54
2018-08-04T17:26:11.542Z,31.46
2018-08-04T17:28:41.457Z,31.56
2018-08-04T17:31:09.355Z,31.58
2018-08-04T17:33:37.110Z,31.54
2018-08-04T17:36:06.109Z,31.50
2018-08-04T17:38:35.205Z,31.55
2018-08-04T17:41:04.013Z,31.59
2018-08-04T17:43:33.869Z,31.45
2018-08-04T17:46:01.855Z,31.38
2018-08-04T17:48:29.675Z,31.31
2018-08-04T17:50:59.799Z,31.25
2018-08-04T17:53:27.699Z,31.16
2018-08-04T17:55:56.751Z,31.10
2018-08-04T17:58:26.366Z,30.94
2018-08-04T18:00:54.158Z,30.83
2018-08-04T18:03:22.243Z,30.73
2018-08-04T18:05:51.577Z,30.63
2018-08-04T18:08:19.408Z,30.43
2018-08-04T18:10:47.702Z,30.32
2018-08-04T18:13:15.469Z,30.31
2018-08-04T18:15:43.266Z,30.18
2018-08-04T18:18:11.021Z,30.12
2018-08-04T18:20:38.903Z,29.91
2018-08-04T18:23:07.070Z,29.76
2018-08-04T18:25:36.072Z,29.69
2018-08-04T18:28:04.569Z,29.64
2018-08-04T18:30:34.537Z,29.43
2018-08-04T18:33:03.811Z,29.41
2018-08-04T18:35:33.062Z,29.24
2018-08-04T18:38:00.839Z,28.96
2018-08-04T18:40:28.493Z,28.88
2018-08-04T18:42:56.381Z,28.87
2018-08-04T18:45:25.021Z,28.77
2018-08-04T18:47:52.995Z,28.66
2018-08-04T18:50:20.592Z,28.61
2018-08-04T18:52:48.211Z,28.49
2018-08-04T18:55:16.488Z,28.34
2018-08-04T18:57:47.226Z,28.21
2018-08-04T19:00:14.823Z,27.85
2018-08-04T19:02:42.434Z,27.67
2018-08-04T19:05:10.031Z,27.85
2018-08-04T19:07:37.698Z,27.94
2018-08-04T19:10:05.599Z,27.95
2018-08-04T19:12:33.192Z,28.00
2018-08-04T19:15:00.791Z,27.99
2018-08-04T19:17:28.464Z,27.96
2018-08-04T19:19:56.143Z,27.94
2018-08-04T19:22:23.821Z,27.97
2018-08-04T19:24:51.403Z,27.92
2018-08-04T19:27:19.019Z,27.89
2018-08-04T19:29:46.699Z,27.69
2018-08-04T19:32:14.311Z,27.66
2018-08-04T19:34:41.966Z,27.55
2018-08-04T19:37:09.574Z,27.38
2018-08-04T19:39:37.163Z,27.45
2018-08-04T19:42:04.875Z,27.44
2018-08-04T19:44:32.423Z,27.35
2018-08-04T19:47:00.020Z,27.13
2018-08-04T19:49:27.595Z,26.92
2018-08-04T19:51:55.152Z,27.03
2018-08-04T19:54:22.734Z,27.11
2018-08-04T19:56:50.303Z,27.01
2018-08-04T19:59:17.875Z,27.00
2018-08-04T20:01:45.528Z,26.96
2018-08-04T20:04:13.096Z,27.00
2018-08-04T20:06:40.658Z,26.91
2018-08-04T20:09:09.771Z,26.83
2018-08-04T20:11:37.515Z,26.73
2018-08-04T20:14:05.067Z,26.73
2018-08-04T20:16:32.710Z,26.61
2018-08-04T20:19:00.574Z,26.68
2018-08-04T20:21:28.704Z,26.46
2018-08-04T20:23:57.266Z,26.40
2018-08-04T20:26:25.711Z,26.42
2018-08-04T20:28:54.675Z,26.48
2018-08-04T20:31:22.314Z,26.48
2018-08-04T20:33:50.325Z,26.54
2018-08-04T20:36:17.919Z,26.61
2018-08-04T20:38:45.712Z,26.72
2018-08-04T20:41:13.260Z,26.76
2018-08-04T20:43:40.847Z,26.78
2018-08-04T20:46:08.579Z,26.81
2018-08-04T20:48:36.165Z,26.81
2018-08-04T20:51:03.761Z,26.81
2018-08-04T20:53:31.351Z,26.83
2018-08-04T20:55:59.075Z,26.84
2018-08-04T20:58:26.836Z,26.84
2018-08-04T21:01:05.447Z,26.84
2018-08-04T21:03:33.047Z,26.84
2018-08-04T21:06:00.611Z,26.82
2018-08-04T21:08:28.247Z,26.78
2018-08-04T21:10:55.843Z,26.74
2018-08-04T21:13:23.432Z,26.78
2018-08-04T21:15:51.072Z,26.77
2018-08-04T21:18:18.652Z,26.74
2018-08-04T21:20:46.308Z,26.70
2018-08-04T21:23:13.975Z,26.68
2018-08-04T21:25:41.572Z,26.69
2018-08-04T21:28:09.223Z,26.65
2018-08-04T21:30:36.818Z,26.62
2018-08-04T21:33:04.421Z,26.63
2018-08-04T21:35:32.015Z,26.59
2018-08-04T21:37:59.630Z,26.55
2018-08-04T21:40:28.016Z,26.48
2018-08-04T21:42:55.785Z,26.40
2018-08-04T21:45:23.902Z,26.34
2018-08-04T21:47:51.754Z,26.31
2018-08-04T21:50:19.523Z,26.31
2018-08-04T21:52:47.339Z,26.23
2018-08-04T21:55:16.300Z,26.14
2018-08-04T21:57:44.015Z,26.12
2018-08-04T22:00:13.040Z,26.12
2018-08-04T22:02:52.752Z,26.05
2018-08-04T22:05:20.572Z,26.08
2018-08-04T22:08:59.028Z,26.10
2018-08-04T22:11:26.902Z,26.01
2018-08-04T22:13:54.575Z,26.03
2018-08-04T22:16:22.307Z,26.05
2018-08-04T22:18:49.931Z,26.10
2018-08-04T22:21:17.748Z,26.13
2018-08-04T22:23:45.357Z,26.09
2018-08-04T22:26:13.012Z,26.06
2018-08-04T22:28:40.652Z,26.10
2018-08-04T22:31:08.271Z,25.82
2018-08-04T22:33:36.036Z,25.41
2018-08-04T22:36:03.867Z,25.54
2018-08-04T22:38:31.659Z,25.70
2018-08-04T22:40:59.539Z,25.98
2018-08-04T22:43:27.260Z,26.24
2018-08-04T22:45:59.127Z,26.49
2018-08-04T22:48:27.062Z,26.70
2018-08-04T22:50:54.964Z,26.78
2018-08-04T22:53:22.762Z,26.61
2018-08-04T22:55:50.530Z,26.52
2018-08-04T22:58:18.279Z,26.39
2018-08-04T23:00:46.078Z,26.34
2018-08-04T23:03:14.129Z,26.27
2018-08-04T23:05:41.839Z,26.22
2018-08-04T23:08:10.516Z,26.17
2018-08-04T23:10:38.663Z,26.05
2018-08-04T23:13:06.731Z,26.07
2018-08-04T23:15:34.606Z,26.03
2018-08-04T23:18:02.437Z,26.01
2018-08-04T23:20:30.253Z,26.10
2018-08-04T23:22:58.615Z,26.16
2018-08-04T23:25:26.156Z,26.03
2018-08-04T23:27:53.922Z,25.79
2018-08-04T23:30:21.978Z,25.79
2018-08-04T23:32:50.430Z,25.81
2018-08-04T23:35:17.991Z,25.86
2018-08-04T23:37:45.870Z,25.87
2018-08-04T23:40:13.446Z,25.91
2018-08-04T23:42:41.124Z,25.84
2018-08-04T23:45:09.106Z,25.76
2018-08-04T23:47:36.668Z,25.74
2018-08-04T23:50:04.731Z,25.71
2018-08-04T23:52:32.368Z,25.65
2018-08-04T23:54:59.958Z,25.64
2018-08-04T23:57:27.953Z,25.61
2018-08-04T23:59:55.625Z,25.61
